Time;durP1;ratioP1;P1;durP2;ratioP2;P2;SDS_P1;SDS_P2;PMS_P1;PMS_P2;Temp;Humidity;BMP_temperature;BMP_pressure;BME280_temperature;BME280_humidity;BME280_pressure;Samples;Min_cycle;Max_cycle;Signal;HPM_P1;HPM_P2
2022/04/04 00:00:08;;;;;;;9.18;5.10;;;2.90;99.90;;;;;;5147717;27;20039;-67
2022/04/04 00:02:34;;;;;;;9.00;4.30;;;2.90;99.90;;;;;;5159874;27;20078;-67
2022/04/04 00:05:01;;;;;;;9.77;4.95;;;3.00;99.90;;;;;;5148382;27;20046;-67
2022/04/04 00:07:27;;;;;;;8.85;4.45;;;3.00;99.90;;;;;;5164424;27;20094;-66
2022/04/04 00:09:53;;;;;;;9.95;5.72;;;3.00;99.90;;;;;;5147552;27;20159;-67
2022/04/04 00:12:19;;;;;;;8.48;5.75;;;3.10;99.90;;;;;;5148630;27;20042;-67
2022/04/04 00:14:45;;;;;;;8.32;5.10;;;3.00;99.90;;;;;;5148096;27;20038;-67
2022/04/04 00:17:11;;;;;;;6.38;4.55;;;3.10;99.90;;;;;;5129350;27;20080;-67
2022/04/04 00:19:37;;;;;;;9.27;5.60;;;3.00;99.90;;;;;;5166069;27;20051;-67
2022/04/04 00:22:03;;;;;;;11.00;5.13;;;3.10;99.90;;;;;;5147436;27;20042;-67
2022/04/04 00:24:29;;;;;;;10.65;6.03;;;3.10;99.90;;;;;;5146190;27;20054;-67
2022/04/04 00:26:54;;;;;;;11.98;6.00;;;3.00;99.90;;;;;;5144627;27;20043;-67
2022/04/04 00:29:20;;;;;;;7.00;5.57;;;2.90;99.90;;;;;;5125697;27;20106;-67
2022/04/04 00:31:46;;;;;;;7.13;5.27;;;3.20;99.90;;;;;;5109089;27;1094035;-67
2022/04/04 00:34:11;;;;;;;10.18;5.82;;;3.20;99.90;;;;;;5147150;27;20042;-67
2022/04/04 00:36:39;;;;;;;14.25;5.93;;;3.00;99.90;;;;;;5140451;27;20105;-67
2022/04/04 00:39:04;;;;;;;8.45;5.00;;;3.00;99.90;;;;;;5168162;27;20035;-67
2022/04/04 00:41:30;;;;;;;12.70;6.13;;;3.30;99.90;;;;;;5166799;27;20129;-67
2022/04/04 00:43:56;;;;;;;8.23;5.60;;;3.30;99.90;;;;;;5145546;27;20057;-67
2022/04/04 00:46:22;;;;;;;7.75;5.70;;;3.10;99.90;;;;;;5131249;27;20074;-67
2022/04/04 00:48:48;;;;;;;8.75;5.60;;;3.20;99.90;;;;;;5168010;27;20094;-67
2022/04/04 00:51:14;;;;;;;10.18;5.90;;;3.20;99.90;;;;;;5132427;27;20051;-67
2022/04/04 00:53:39;;;;;;;8.10;5.32;;;3.10;99.90;;;;;;5148657;27;20043;-67
2022/04/04 00:56:07;;;;;;;10.45;5.80;;;3.30;99.90;;;;;;5148405;27;20045;-67
2022/04/04 00:58:36;;;;;;;11.50;5.50;;;3.10;99.90;;;;;;5165667;27;20118;-67
2022/04/04 01:01:03;;;;;;;8.00;5.40;;;3.10;99.90;;;;;;5166499;27;20057;-67
2022/04/04 01:03:29;;;;;;;9.75;5.55;;;3.20;99.90;;;;;;5167772;27;20299;-67
2022/04/04 01:05:57;;;;;;;8.18;5.53;;;3.40;99.90;;;;;;5148786;27;20453;-67
2022/04/04 01:08:24;;;;;;;7.72;5.30;;;3.30;99.90;;;;;;5146475;27;20185;-67
2022/04/04 01:10:50;;;;;;;9.35;6.03;;;3.20;99.90;;;;;;5165945;27;20031;-67
2022/04/04 01:13:16;;;;;;;9.38;5.68;;;3.20;99.90;;;;;;5148092;27;20052;-67
2022/04/04 01:15:42;;;;;;;10.05;6.18;;;3.20;99.90;;;;;;5166854;27;20049;-67
2022/04/04 01:18:09;;;;;;;8.57;5.72;;;3.30;99.90;;;;;;5146551;27;20046;-67
2022/04/04 01:20:36;;;;;;;10.85;5.55;;;3.40;99.90;;;;;;5165811;27;20406;-67
2022/04/04 01:23:04;;;;;;;9.57;6.07;;;3.40;99.90;;;;;;5147211;27;20047;-67
2022/04/04 01:25:32;;;;;;;11.30;6.20;;;3.30;99.90;;;;;;5147459;27;20049;-67
2022/04/04 01:27:59;;;;;;;9.13;6.32;;;3.40;99.90;;;;;;5164897;27;20516;-67
2022/04/04 01:30:26;;;;;;;9.25;6.20;;;3.30;99.90;;;;;;5148467;27;20051;-67
2022/04/04 01:32:53;;;;;;;9.90;7.07;;;3.50;99.90;;;;;;5166999;27;20054;-67
2022/04/04 01:35:19;;;;;;;8.98;6.32;;;3.40;99.90;;;;;;5177162;27;20102;-67
2022/04/04 01:37:46;;;;;;;13.30;7.75;;;3.30;99.90;;;;;;5140531;27;20054;-67
2022/04/04 01:40:12;;;;;;;12.90;7.38;;;3.50;99.90;;;;;;5166419;27;20051;-67
2022/04/04 01:42:39;;;;;;;10.57;7.43;;;3.50;99.90;;;;;;5147069;27;20039;-67
2022/04/04 01:45:07;;;;;;;15.35;9.10;;;3.50;99.90;;;;;;5146726;27;20051;-67
2022/04/04 01:47:33;;;;;;;11.38;8.00;;;3.70;99.90;;;;;;5146735;27;20067;-67
2022/04/04 01:49:59;;;;;;;13.25;8.68;;;3.50;99.90;;;;;;5147296;27;20102;-67
2022/04/04 01:52:24;;;;;;;14.02;9.00;;;3.50;99.90;;;;;;5146838;27;20043;-67
2022/04/04 01:54:50;;;;;;;15.15;9.63;;;3.70;99.90;;;;;;5166854;27;20039;-67
2022/04/04 01:57:16;;;;;;;15.13;9.93;;;3.60;99.90;;;;;;5163397;27;20065;-67
2022/04/04 01:59:42;;;;;;;14.48;9.98;;;3.70;99.90;;;;;;5148183;27;20114;-67
2022/04/04 02:02:07;;;;;;;17.70;10.48;;;3.50;99.90;;;;;;5165969;27;20049;-67
2022/04/04 02:04:33;;;;;;;15.00;10.85;;;3.50;99.90;;;;;;5146476;27;20071;-67
2022/04/04 02:06:59;;;;;;;15.70;11.02;;;3.60;99.90;;;;;;5147364;27;20038;-67
2022/04/04 02:09:25;;;;;;;15.52;11.45;;;3.70;99.90;;;;;;5146122;27;20046;-67
2022/04/04 02:11:51;;;;;;;14.95;12.02;;;3.70;99.90;;;;;;5168184;27;20043;-67
2022/04/04 02:14:17;;;;;;;17.80;11.30;;;3.70;99.90;;;;;;5165758;27;20103;-67
2022/04/04 02:16:43;;;;;;;19.00;12.25;;;3.60;99.90;;;;;;5165320;27;20071;-67
2022/04/04 02:19:09;;;;;;;15.57;11.95;;;3.50;99.90;;;;;;5159732;27;20045;-67
2022/04/04 02:21:36;;;;;;;15.27;11.52;;;3.60;99.90;;;;;;5145660;27;20098;-67
2022/04/04 02:24:02;;;;;;;16.13;12.77;;;3.60;99.90;;;;;;5146681;27;20046;-67
2022/04/04 02:26:29;;;;;;;18.17;11.43;;;3.60;99.90;;;;;;5166191;27;20612;-67
2022/04/04 02:28:54;;;;;;;14.75;11.48;;;3.50;99.90;;;;;;5146580;27;20038;-67
2022/04/04 02:31:20;;;;;;;15.55;12.55;;;3.50;99.90;;;;;;5166314;27;20038;-67
2022/04/04 02:33:46;;;;;;;17.60;12.20;;;3.60;99.90;;;;;;5166427;27;20139;-67
2022/04/04 02:36:12;;;;;;;15.27;12.63;;;3.60;99.90;;;;;;5147127;27;20034;-67
2022/04/04 02:38:38;;;;;;;17.63;11.77;;;3.70;99.90;;;;;;5145629;27;20578;-67
2022/04/04 02:41:04;;;;;;;17.27;12.32;;;3.70;99.90;;;;;;5142485;27;20103;-67
2022/04/04 02:43:31;;;;;;;15.60;12.15;;;3.90;99.90;;;;;;5176057;27;20051;-67
2022/04/04 02:45:57;;;;;;;16.15;11.95;;;3.80;99.90;;;;;;5145414;27;20043;-67
2022/04/04 02:48:23;;;;;;;18.77;12.38;;;3.70;99.90;;;;;;5152943;27;20054;-67
2022/04/04 02:50:49;;;;;;;17.65;12.85;;;3.70;99.90;;;;;;5147003;27;20033;-67
2022/04/04 02:53:15;;;;;;;20.58;13.88;;;3.80;99.90;;;;;;5147414;27;20051;-67
2022/04/04 02:58:26;;;;;;;20.17;13.55;;;4.00;99.90;;;;;;5146926;27;20047;-67
2022/04/04 03:00:52;;;;;;;18.88;12.23;;;3.90;99.90;;;;;;5140247;27;20043;-67
2022/04/04 03:03:19;;;;;;;18.40;13.55;;;3.90;99.90;;;;;;5144701;27;20047;-67
2022/04/04 03:05:46;;;;;;;21.55;13.20;;;4.10;99.90;;;;;;5145484;27;20106;-67
2022/04/04 03:08:12;;;;;;;19.70;13.68;;;4.20;99.90;;;;;;5148189;27;20074;-67
2022/04/04 03:10:38;;;;;;;22.98;14.25;;;4.20;99.90;;;;;;5150850;27;20099;-67
2022/04/04 03:13:05;;;;;;;18.35;13.57;;;4.10;99.90;;;;;;5150471;27;20074;-67
2022/04/04 03:15:34;;;;;;;19.65;13.55;;;4.20;99.90;;;;;;5168220;27;20039;-67
2022/04/04 03:18:00;;;;;;;23.63;14.13;;;4.20;99.90;;;;;;5168659;27;20078;-67
2022/04/04 03:20:26;;;;;;;17.60;11.80;;;4.40;99.90;;;;;;5149717;27;20477;-67
2022/04/04 03:22:55;;;;;;;23.48;15.65;;;4.20;99.90;;;;;;5149575;27;20060;-66
2022/04/04 03:25:21;;;;;;;21.77;14.85;;;4.40;99.90;;;;;;5169112;27;20121;-67
2022/04/04 03:27:48;;;;;;;22.20;14.55;;;4.40;99.90;;;;;;5169919;27;20078;-67
2022/04/04 03:30:18;;;;;;;22.98;14.77;;;4.60;99.90;;;;;;5179462;27;20035;-67
2022/04/04 03:32:45;;;;;;;20.33;13.38;;;4.50;99.90;;;;;;5149976;27;20050;-67
2022/04/04 03:35:13;;;;;;;20.85;14.00;;;4.80;99.90;;;;;;5170390;27;20226;-67
2022/04/04 03:37:38;;;;;;;20.05;12.90;;;4.60;99.90;;;;;;5132242;27;20035;-67
2022/04/04 03:40:06;;;;;;;20.60;12.80;;;4.70;99.90;;;;;;5168745;27;20118;-67
2022/04/04 03:42:33;;;;;;;23.98;13.65;;;4.80;99.90;;;;;;5149339;27;20043;-67
2022/04/04 03:44:58;;;;;;;21.67;15.35;;;5.00;99.90;;;;;;5133208;27;20070;-67
2022/04/04 03:47:24;;;;;;;21.60;15.02;;;4.90;99.90;;;;;;5169440;27;20043;-67
2022/04/04 03:49:50;;;;;;;23.50;14.10;;;4.90;99.90;;;;;;5149708;27;20088;-67
2022/04/04 03:52:16;;;;;;;20.73;14.55;;;5.00;99.90;;;;;;5140995;27;20062;-67
2022/04/04 03:54:42;;;;;;;20.75;14.25;;;5.00;99.90;;;;;;5168271;27;20042;-67
2022/04/04 03:57:08;;;;;;;23.08;13.30;;;5.10;99.90;;;;;;5148678;27;20050;-66
2022/04/04 03:59:34;;;;;;;24.55;14.38;;;5.20;99.90;;;;;;5149039;27;20047;-67
2022/04/04 04:02:00;;;;;;;21.77;13.93;;;5.00;99.90;;;;;;5149805;27;20045;-66
2022/04/04 04:04:26;;;;;;;27.30;13.75;;;5.10;99.90;;;;;;5148737;27;20046;-67
2022/04/04 04:06:52;;;;;;;19.88;13.48;;;5.20;99.90;;;;;;5167807;27;20046;-67
2022/04/04 04:09:18;;;;;;;20.05;15.00;;;5.20;99.90;;;;;;5168757;27;20043;-67
2022/04/04 04:11:44;;;;;;;20.83;13.85;;;5.20;99.90;;;;;;5139659;27;20086;-66
2022/04/04 04:14:10;;;;;;;24.48;14.07;;;5.20;99.90;;;;;;5140533;27;20498;-67
2022/04/04 04:16:36;;;;;;;20.45;13.18;;;5.20;99.90;;;;;;5169058;27;20047;-67
2022/04/04 04:19:01;;;;;;;20.17;12.90;;;5.20;99.90;;;;;;5165691;27;20034;-67
2022/04/04 04:21:27;;;;;;;22.73;13.60;;;5.20;99.90;;;;;;5149014;27;20062;-67
2022/04/04 04:23:53;;;;;;;20.95;13.57;;;5.40;99.90;;;;;;5148271;27;20070;-67
2022/04/04 04:26:20;;;;;;;18.33;12.48;;;5.40;99.90;;;;;;5148889;27;20077;-67
2022/04/04 04:28:47;;;;;;;20.88;13.32;;;5.40;99.90;;;;;;5167415;27;20049;-67
2022/04/04 04:31:14;;;;;;;20.75;13.85;;;5.40;99.90;;;;;;5145862;27;20043;-67
2022/04/04 04:33:40;;;;;;;22.83;14.57;;;5.40;99.90;;;;;;5148146;27;20058;-67
2022/04/04 04:36:07;;;;;;;22.92;14.35;;;5.30;99.90;;;;;;5148500;27;20054;-67
2022/04/04 04:38:34;;;;;;;21.67;13.73;;;5.40;99.90;;;;;;5149177;27;20095;-67
2022/04/04 04:41:00;;;;;;;22.95;14.75;;;5.20;99.90;;;;;;5148489;27;20117;-67
2022/04/04 04:43:26;;;;;;;21.25;14.90;;;5.20;99.90;;;;;;5148113;27;20054;-67
2022/04/04 04:45:53;;;;;;;17.63;13.07;;;5.10;99.90;;;;;;5148308;27;20160;-67
2022/04/04 04:48:19;;;;;;;18.90;13.23;;;5.30;99.90;;;;;;5160917;27;20043;-67
2022/04/04 04:50:45;;;;;;;17.30;13.75;;;5.20;99.90;;;;;;5146565;27;20045;-67
2022/04/04 04:53:10;;;;;;;21.25;13.27;;;5.30;99.90;;;;;;5163385;27;20054;-67
2022/04/04 04:55:36;;;;;;;19.27;14.00;;;5.10;99.90;;;;;;5149494;27;20039;-67
2022/04/04 04:58:02;;;;;;;19.92;14.35;;;5.40;99.90;;;;;;5166419;27;20054;-67
2022/04/04 05:00:29;;;;;;;20.23;13.27;;;5.40;99.90;;;;;;5129728;27;20047;-67
2022/04/04 05:05:41;;;;;;;21.92;13.63;;;5.20;99.90;;;;;;5143583;27;20046;-68
2022/04/04 05:08:08;;;;;;;22.05;15.55;;;5.30;99.90;;;;;;5102385;27;20083;-67
2022/04/04 05:10:33;;;;;;;22.98;15.15;;;5.30;99.90;;;;;;5146097;27;20444;-69
2022/04/04 05:12:59;;;;;;;19.23;13.68;;;5.10;99.90;;;;;;5167262;27;20066;-68
2022/04/04 05:15:25;;;;;;;20.73;14.70;;;5.30;99.90;;;;;;5164778;27;20487;-67
2022/04/04 05:17:52;;;;;;;22.45;13.88;;;5.20;99.90;;;;;;5105167;27;20054;-66
2022/04/04 05:20:19;;;;;;;23.75;14.10;;;5.30;99.90;;;;;;5129727;27;20058;-68
2022/04/04 05:22:45;;;;;;;17.08;13.43;;;5.30;99.90;;;;;;5127835;27;20065;-67
2022/04/04 05:25:11;;;;;;;20.02;13.85;;;5.40;99.90;;;;;;5129681;27;20046;-67
2022/04/04 05:27:39;;;;;;;17.10;13.68;;;5.50;99.90;;;;;;5143284;27;20129;-70
2022/04/04 05:30:05;;;;;;;19.70;14.52;;;5.50;99.90;;;;;;5130370;27;20087;-67
2022/04/04 05:32:31;;;;;;;20.33;14.50;;;5.30;99.90;;;;;;5144745;27;20082;-67
2022/04/04 05:34:57;;;;;;;19.27;14.52;;;5.40;99.90;;;;;;5129770;27;20067;-66
2022/04/04 05:37:23;;;;;;;19.13;12.95;;;5.30;99.90;;;;;;5125435;27;20027;-66
2022/04/04 05:39:48;;;;;;;17.50;13.35;;;5.60;99.90;;;;;;5132934;27;20057;-67
2022/04/04 05:42:16;;;;;;;20.27;13.73;;;5.50;99.90;;;;;;5141812;27;20051;-66
2022/04/04 05:44:42;;;;;;;23.92;14.90;;;5.50;99.90;;;;;;5132555;27;20061;-66
2022/04/04 05:47:09;;;;;;;15.77;12.55;;;5.40;99.90;;;;;;5141253;27;20050;-66
2022/04/04 05:49:35;;;;;;;18.85;12.52;;;5.40;99.90;;;;;;5129076;27;20054;-65
2022/04/04 05:52:01;;;;;;;20.08;13.90;;;5.50;99.90;;;;;;5139959;27;20902;-66
2022/04/04 05:54:27;;;;;;;19.48;13.90;;;5.50;99.90;;;;;;5150115;27;20042;-66
2022/04/04 05:56:52;;;;;;;19.30;13.65;;;5.30;99.90;;;;;;5142225;27;20043;-66
2022/04/04 05:59:18;;;;;;;18.20;13.07;;;5.40;99.90;;;;;;5107310;27;20632;-66
2022/04/04 06:01:44;;;;;;;17.92;13.73;;;5.40;99.90;;;;;;5122791;27;20088;-65
2022/04/04 06:04:09;;;;;;;21.02;13.60;;;5.30;99.90;;;;;;5150033;27;20054;-66
2022/04/04 06:06:35;;;;;;;19.75;13.73;;;5.40;99.90;;;;;;5125574;27;20110;-66
2022/04/04 06:09:01;;;;;;;22.27;13.93;;;5.30;99.90;;;;;;5149976;27;20093;-69
2022/04/04 06:11:27;;;;;;;16.77;12.63;;;5.30;99.90;;;;;;5138706;27;20103;-68
2022/04/04 06:13:53;;;;;;;18.05;12.20;;;5.40;99.90;;;;;;5139022;27;20057;-67
2022/04/04 06:16:19;;;;;;;15.50;11.75;;;5.30;99.90;;;;;;5113065;27;20122;-67
2022/04/04 06:18:45;;;;;;;20.13;13.75;;;5.30;99.90;;;;;;5140924;27;20568;-67
2022/04/04 06:21:10;;;;;;;15.50;12.23;;;5.30;99.90;;;;;;5111310;27;20047;-67
2022/04/04 06:23:36;;;;;;;17.25;13.50;;;5.30;99.90;;;;;;5140136;27;20068;-66
2022/04/04 06:26:05;;;;;;;19.65;14.55;;;5.30;99.90;;;;;;5126814;27;20046;-66
2022/04/04 06:28:31;;;;;;;18.80;12.88;;;5.10;99.90;;;;;;5139272;27;20039;-66
2022/04/04 06:30:58;;;;;;;17.63;13.60;;;5.20;99.90;;;;;;5143355;27;20074;-66
2022/04/04 06:33:24;;;;;;;21.88;13.00;;;5.20;99.90;;;;;;5142038;27;20157;-66
2022/04/04 06:35:51;;;;;;;17.45;13.13;;;5.20;99.90;;;;;;5148461;27;20070;-66
2022/04/04 06:38:20;;;;;;;19.42;13.75;;;5.30;99.90;;;;;;5139288;27;20050;-73
2022/04/04 06:40:46;;;;;;;19.75;14.05;;;5.20;99.90;;;;;;5128995;27;20067;-73
2022/04/04 06:43:12;;;;;;;21.58;14.23;;;5.20;99.90;;;;;;5134701;27;20130;-73
2022/04/04 06:45:38;;;;;;;20.95;14.45;;;5.20;99.90;;;;;;5135878;27;20042;-73
2022/04/04 06:48:04;;;;;;;22.50;14.45;;;5.30;99.90;;;;;;5145647;27;20087;-73
2022/04/04 06:50:30;;;;;;;20.85;15.65;;;5.10;99.90;;;;;;5154792;27;20043;-73
2022/04/04 06:52:56;;;;;;;27.38;15.43;;;4.90;99.90;;;;;;5144980;27;20154;-73
2022/04/04 06:55:23;;;;;;;22.27;15.32;;;4.90;99.90;;;;;;5161289;27;20072;-73
2022/04/04 06:57:48;;;;;;;18.70;14.57;;;5.10;99.90;;;;;;5146204;27;20054;-72
2022/04/04 07:00:16;;;;;;;21.45;15.65;;;4.90;99.90;;;;;;5132301;27;20051;-73
2022/04/04 07:02:44;;;;;;;20.90;14.52;;;5.00;99.90;;;;;;5144665;27;20473;-71
2022/04/04 07:05:10;;;;;;;25.42;17.27;;;4.80;99.90;;;;;;5152080;27;20085;-72
2022/04/04 07:07:36;;;;;;;23.77;16.77;;;4.90;99.90;;;;;;5111867;27;20058;-72
2022/04/04 07:10:03;;;;;;;17.48;14.15;;;4.80;99.90;;;;;;5148609;27;20057;-73
2022/04/04 07:12:29;;;;;;;17.40;14.63;;;4.80;99.90;;;;;;5163246;27;20050;-74
2022/04/04 07:14:55;;;;;;;19.30;15.05;;;4.70;99.90;;;;;;5135122;27;20039;-74
2022/04/04 07:17:21;;;;;;;21.58;16.17;;;4.90;99.90;;;;;;5142109;27;20290;-74
2022/04/04 07:19:47;;;;;;;22.13;16.02;;;4.90;99.90;;;;;;5140146;27;20070;-74
2022/04/04 07:22:14;;;;;;;25.83;16.35;;;4.70;99.90;;;;;;5144736;27;20066;-74
2022/04/04 07:24:40;;;;;;;22.08;17.67;;;4.80;99.90;;;;;;5158669;27;20043;-74
2022/04/04 07:27:06;;;;;;;21.77;17.13;;;4.80;99.90;;;;;;5142589;27;20225;-74
2022/04/04 07:29:32;;;;;;;18.30;15.25;;;4.70;99.90;;;;;;5134940;27;20055;-74
2022/04/04 07:31:58;;;;;;;22.77;17.50;;;4.80;99.90;;;;;;5146150;27;20054;-74
2022/04/04 07:34:24;;;;;;;22.38;17.05;;;4.90;99.90;;;;;;5135580;27;20105;-74
2022/04/04 07:36:49;;;;;;;19.75;16.42;;;4.80;99.90;;;;;;5134014;27;20049;-74
2022/04/04 07:39:15;;;;;;;22.30;15.82;;;4.80;99.90;;;;;;5151540;27;20054;-74
2022/04/04 07:41:41;;;;;;;25.40;19.13;;;4.90;99.90;;;;;;5159471;27;20129;-74
2022/04/04 07:44:06;;;;;;;27.40;20.25;;;4.90;99.90;;;;;;5143190;27;20074;-75
2022/04/04 07:46:32;;;;;;;21.52;16.33;;;5.00;99.90;;;;;;5131718;27;20093;-75
2022/04/04 07:48:59;;;;;;;27.10;16.90;;;4.80;99.90;;;;;;5142191;27;20038;-75
2022/04/04 07:51:25;;;;;;;24.40;18.70;;;5.10;99.90;;;;;;5131080;27;20104;-75
2022/04/04 07:53:51;;;;;;;24.75;18.80;;;5.00;99.90;;;;;;5143310;27;20038;-75
2022/04/04 07:56:19;;;;;;;27.95;19.27;;;5.00;99.90;;;;;;5132935;27;20061;-73
2022/04/04 07:58:45;;;;;;;23.33;18.70;;;5.10;99.90;;;;;;5138954;27;20046;-76
2022/04/04 08:01:11;;;;;;;23.40;17.83;;;5.10;99.90;;;;;;5148253;27;20054;-80
2022/04/04 08:03:37;;;;;;;29.10;20.80;;;5.00;99.90;;;;;;5143834;27;20061;-72
2022/04/04 08:06:02;;;;;;;26.52;21.17;;;5.10;99.90;;;;;;5121097;27;20058;-71
2022/04/04 08:08:29;;;;;;;27.83;21.92;;;5.00;99.90;;;;;;5137149;27;20050;-72
2022/04/04 08:10:57;;;;;;;24.40;21.17;;;4.80;99.90;;;;;;5153962;27;20114;-74
2022/04/04 08:13:24;;;;;;;33.45;22.50;;;5.10;99.90;;;;;;5140988;27;20106;-76
2022/04/04 08:15:50;;;;;;;29.00;22.67;;;4.90;99.90;;;;;;5135428;27;20050;-74
2022/04/04 08:18:16;;;;;;;30.00;25.20;;;4.90;99.90;;;;;;5159765;27;20123;-72
2022/04/04 08:20:43;;;;;;;32.00;23.98;;;5.00;99.90;;;;;;5111885;27;20058;-73
2022/04/04 08:23:08;;;;;;;28.15;22.60;;;5.10;99.90;;;;;;5142899;27;20038;-74
2022/04/04 08:25:35;;;;;;;27.88;23.65;;;4.90;99.90;;;;;;5135423;27;20641;-74
2022/04/04 08:28:01;;;;;;;29.80;25.27;;;5.20;99.90;;;;;;5124972;27;20254;-74
2022/04/04 08:30:27;;;;;;;29.58;22.77;;;4.90;99.90;;;;;;5113488;27;20079;-75
2022/04/04 08:32:52;;;;;;;34.08;26.50;;;5.30;99.90;;;;;;5160542;27;20155;-75
2022/04/04 08:35:18;;;;;;;28.38;23.77;;;5.10;99.90;;;;;;5113190;27;20043;-75
2022/04/04 08:37:46;;;;;;;27.48;23.88;;;5.10;99.90;;;;;;5115749;27;20127;-75
2022/04/04 08:40:13;;;;;;;29.55;22.92;;;5.10;99.90;;;;;;5132465;27;20057;-75
2022/04/04 08:42:40;;;;;;;27.35;23.23;;;5.40;99.90;;;;;;5143010;27;20166;-75
2022/04/04 08:45:07;;;;;;;28.85;23.35;;;5.20;99.90;;;;;;5155072;27;20122;-75
2022/04/04 08:47:33;;;;;;;29.75;22.08;;;5.20;99.90;;;;;;5145478;27;20043;-75
2022/04/04 08:50:01;;;;;;;24.77;22.00;;;5.30;99.90;;;;;;5154657;27;20043;-75
2022/04/04 08:52:27;;;;;;;30.02;22.10;;;5.20;99.90;;;;;;5140691;27;20545;-74
2022/04/04 08:54:53;;;;;;;24.90;20.23;;;5.30;99.90;;;;;;5155640;27;20046;-74
2022/04/04 08:57:19;;;;;;;21.75;18.30;;;5.30;99.90;;;;;;5125666;27;20078;-74
2022/04/04 08:59:45;;;;;;;20.80;16.75;;;5.50;99.90;;;;;;5112269;27;20050;-74
2022/04/04 09:02:12;;;;;;;19.83;15.25;;;5.40;99.90;;;;;;5131360;27;20208;-76
2022/04/04 09:04:40;;;;;;;19.02;15.93;;;5.30;99.90;;;;;;5113653;27;20071;-75
2022/04/04 09:07:08;;;;;;;21.10;16.05;;;5.30;99.90;;;;;;5125852;27;20564;-75
2022/04/04 09:10:03;;;;;;;22.85;15.68;;;5.30;99.90;;;;;;5152981;27;20177;-74
2022/04/04 09:12:29;;;;;;;16.27;14.55;;;5.50;99.90;;;;;;5137176;27;20057;-77
2022/04/04 09:14:57;;;;;;;15.07;12.88;;;5.40;99.90;;;;;;5130673;27;20050;-75
2022/04/04 09:17:27;;;;;;;17.35;14.38;;;5.40;99.90;;;;;;5142809;27;20060;-75
2022/04/04 09:19:52;;;;;;;17.52;13.52;;;5.50;99.90;;;;;;5132511;27;20098;-76
2022/04/04 09:22:19;;;;;;;12.65;11.35;;;5.40;99.90;;;;;;5141682;27;20042;-77
2022/04/04 09:24:46;;;;;;;14.98;10.48;;;5.50;99.90;;;;;;5149495;27;20039;-75
2022/04/04 09:27:33;;;;;;;14.65;9.93;;;5.40;99.90;;;;;;5157514;27;20039;-74
2022/04/04 09:30:07;;;;;;;10.48;8.52;;;5.40;99.90;;;;;;5154280;27;20506;-75
2022/04/04 09:32:44;;;;;;;13.65;9.18;;;5.60;99.90;;;;;;5161688;27;20091;-75
2022/04/04 09:35:16;;;;;;;9.45;6.43;;;5.60;99.90;;;;;;5130120;27;20046;-75
2022/04/04 09:37:45;;;;;;;11.15;6.97;;;5.50;99.90;;;;;;5141330;27;20098;-75
2022/04/04 09:40:16;;;;;;;8.48;6.13;;;5.50;99.90;;;;;;5136210;27;20042;-76
2022/04/04 09:42:51;;;;;;;8.70;6.72;;;5.70;99.90;;;;;;5139144;27;20051;-76
2022/04/04 09:45:18;;;;;;;9.30;5.90;;;5.60;99.90;;;;;;5133775;27;20050;-75
2022/04/04 09:47:45;;;;;;;11.50;6.25;;;5.50;99.90;;;;;;5134487;27;20035;-75
2022/04/04 09:50:27;;;;;;;11.15;6.60;;;5.70;99.90;;;;;;5132109;27;20114;-77
2022/04/04 09:52:53;;;;;;;8.20;5.63;;;5.50;99.90;;;;;;5141323;27;20035;-78
2022/04/04 09:55:35;;;;;;;11.00;6.05;;;5.60;99.90;;;;;;5132039;27;20047;-78
2022/04/04 09:58:06;;;;;;;7.63;5.20;;;5.60;99.90;;;;;;5140927;27;20098;-78
2022/04/04 10:00:34;;;;;;;5.85;5.20;;;5.70;99.90;;;;;;5129403;27;20084;-73
2022/04/04 10:03:02;;;;;;;7.13;4.28;;;5.80;99.90;;;;;;5140073;27;20043;-77
2022/04/04 10:05:28;;;;;;;6.90;5.72;;;5.90;99.90;;;;;;5132403;27;20121;-77
2022/04/04 10:07:58;;;;;;;9.30;5.55;;;5.80;99.90;;;;;;5122983;27;20074;-76
2022/04/04 10:10:29;;;;;;;6.97;4.75;;;5.90;99.90;;;;;;5110484;27;20103;-76
2022/04/04 10:12:56;;;;;;;5.90;5.25;;;5.70;99.90;;;;;;5158004;27;20031;-76
2022/04/04 10:15:23;;;;;;;8.00;6.38;;;5.80;99.90;;;;;;5112633;27;20115;-76
2022/04/04 10:17:50;;;;;;;7.85;6.15;;;5.70;99.90;;;;;;5160820;27;20825;-76
2022/04/04 10:20:17;;;;;;;8.27;5.53;;;5.70;99.90;;;;;;5112873;27;20099;-71
2022/04/04 10:22:45;;;;;;;7.70;5.50;;;5.70;99.90;;;;;;5140796;27;20487;-71
2022/04/04 10:25:14;;;;;;;4.80;4.22;;;5.90;99.90;;;;;;5135329;27;20051;-74
2022/04/04 10:27:44;;;;;;;6.95;5.25;;;6.00;99.90;;;;;;5144698;27;20034;-75
2022/04/04 10:30:10;;;;;;;5.47;4.93;;;5.90;99.90;;;;;;5135150;27;20043;-74
2022/04/04 10:32:51;;;;;;;7.40;5.72;;;5.90;99.90;;;;;;5140035;27;20210;-74
2022/04/04 10:35:27;;;;;;;;;;;5.80;99.90;;;;;;5106859;27;20047;-77
2022/04/04 10:38:01;;;;;;;8.70;6.10;;;6.10;99.90;;;;;;5138785;27;19923;-75
2022/04/04 10:40:28;;;;;;;8.35;6.00;;;5.90;99.90;;;;;;5099949;27;20115;-76
2022/04/04 10:43:11;;;;;;;9.32;6.82;;;6.00;99.90;;;;;;5114010;27;20046;-75
2022/04/04 10:45:49;;;;;;;9.13;7.07;;;6.00;99.90;;;;;;5111910;27;20077;-75
2022/04/04 10:48:18;;;;;;;7.97;6.20;;;5.80;99.90;;;;;;5119958;28;20587;-75
2022/04/04 10:50:45;;;;;;;7.50;5.75;;;5.80;99.90;;;;;;5087855;28;20047;-76
2022/04/04 10:53:11;;;;;;;7.32;5.82;;;5.90;99.90;;;;;;5123789;27;20046;-76
2022/04/04 10:55:36;;;;;;;8.68;6.25;;;6.00;99.90;;;;;;5111005;27;20119;-76
2022/04/04 10:58:16;;;;;;;8.25;5.70;;;5.90;99.90;;;;;;5108326;27;20043;-75
2022/04/04 11:01:00;;;;;;;8.50;6.18;;;6.10;99.90;;;;;;5101213;27;20044;-75
2022/04/04 11:03:32;;;;;;;7.25;6.18;;;6.10;99.90;;;;;;5148575;27;20046;-76
2022/04/04 11:09:18;;;;;;;7.45;6.25;;;6.10;99.90;;;;;;5130764;27;20047;-76
2022/04/04 11:11:47;;;;;;;9.27;6.50;;;6.20;99.90;;;;;;5108722;27;20043;-76
2022/04/04 11:14:41;;;;;;;7.85;5.72;;;6.20;99.90;;;;;;5099157;27;20055;-76
2022/04/04 11:17:18;;;;;;;7.93;6.15;;;6.40;99.90;;;;;;5123613;27;20113;-76
2022/04/04 11:19:45;;;;;;;8.95;6.82;;;6.40;99.90;;;;;;5123831;27;20043;-76
2022/04/04 11:22:16;;;;;;;8.07;5.95;;;6.20;99.90;;;;;;5124264;27;20055;-76
2022/04/04 11:24:43;;;;;;;8.43;6.05;;;6.30;99.90;;;;;;5114663;27;20045;-76
2022/04/04 11:27:10;;;;;;;6.97;5.25;;;6.20;99.90;;;;;;5093972;27;20044;-76
2022/04/04 11:29:39;;;;;;;7.05;6.35;;;6.30;99.90;;;;;;5106195;27;20039;-77
2022/04/04 11:32:08;;;;;;;7.40;6.60;;;6.50;99.90;;;;;;5092979;27;20060;-77
2022/04/04 11:34:36;;;;;;;10.05;6.65;;;6.40;99.90;;;;;;5106525;27;20058;-78
2022/04/04 11:37:04;;;;;;;7.05;5.47;;;6.60;99.90;;;;;;5083398;27;20063;-78
2022/04/04 11:39:30;;;;;;;7.20;5.72;;;6.60;99.90;;;;;;5115636;27;20055;-77
2022/04/04 11:41:56;;;;;;;8.15;5.68;;;6.40;99.90;;;;;;5085537;27;20151;-76
2022/04/04 11:44:26;;;;;;;7.60;5.78;;;6.40;99.90;;;;;;5110454;27;20504;-77
2022/04/04 11:47:09;;;;;;;6.60;4.93;;;6.70;99.90;;;;;;5103276;27;20466;-78
2022/04/04 11:49:37;;;;;;;7.63;5.68;;;6.60;99.90;;;;;;5100362;28;20071;-78
2022/04/04 11:52:06;;;;;;;6.43;3.92;;;6.90;99.90;;;;;;5089097;28;20067;-77
2022/04/04 11:54:58;;;;;;;4.72;4.03;;;6.70;99.90;;;;;;5100778;27;20124;-78
2022/04/04 11:57:24;;;;;;;3.35;3.05;;;7.00;99.90;;;;;;5112146;27;20040;-78
2022/04/04 11:59:50;;;;;;;4.25;3.40;;;7.00;99.90;;;;;;5105481;27;20055;-78
2022/04/04 12:02:22;;;;;;;5.07;4.00;;;7.10;99.90;;;;;;5072528;27;20055;-76
2022/04/04 12:04:49;;;;;;;4.25;3.10;;;6.90;99.90;;;;;;5099738;28;20047;-78
2022/04/04 12:07:16;;;;;;;4.63;3.28;;;7.10;99.90;;;;;;5072229;27;20047;-77
2022/04/04 12:09:42;;;;;;;4.72;3.55;;;6.80;99.90;;;;;;5136329;27;20043;-78
2022/04/04 12:12:10;;;;;;;4.03;3.45;;;7.10;99.90;;;;;;5091552;27;20118;-79
2022/04/04 12:14:39;;;;;;;4.78;3.40;;;6.90;99.90;;;;;;5100880;28;20055;-79
2022/04/04 12:17:05;;;;;;;4.03;3.05;;;7.00;99.90;;;;;;5112296;27;20051;-76
2022/04/04 12:19:39;;;;;;;5.13;3.17;;;6.90;99.90;;;;;;5110955;27;20050;-74
2022/04/04 12:24:55;;;;;;;4.15;2.40;;;7.20;99.90;;;;;;5108662;27;20081;-78
2022/04/04 12:24:55;;;;;;;4.25;2.80;;;7.20;99.90;;;;;;5091428;28;20451;-79
2022/04/04 12:27:21;;;;;;;3.70;2.70;;;7.00;99.90;;;;;;5081684;28;20242;-76
2022/04/04 12:29:47;;;;;;;6.10;3.10;;;7.00;99.90;;;;;;5087655;27;20506;-76
2022/04/04 12:32:18;;;;;;;4.22;2.90;;;7.20;99.90;;;;;;5093369;27;20290;-78
2022/04/04 12:34:59;;;;;;;4.25;2.83;;;7.20;99.90;;;;;;5136385;27;20046;-79
2022/04/04 12:37:34;;;;;;;;;;;7.20;99.90;;;;;;5126733;27;20047;-77
2022/04/04 12:40:23;;;;;;;4.53;3.65;;;7.10;99.90;;;;;;5153876;27;19931;-77
2022/04/04 12:42:51;;;;;;;3.75;2.90;;;7.20;99.90;;;;;;5096648;27;20047;-77
2022/04/04 12:45:18;;;;;;;3.58;2.60;;;7.30;99.90;;;;;;5127498;27;20050;-78
2022/04/04 12:48:11;;;;;;;3.90;2.70;;;7.30;99.90;;;;;;5126845;27;20046;-74
2022/04/04 12:50:39;;;;;;;5.65;3.00;;;7.30;99.90;;;;;;5118143;27;20105;-75
2022/04/04 12:53:07;;;;;;;2.95;2.28;;;7.20;99.90;;;;;;5139167;27;20107;-76
2022/04/04 12:55:34;;;;;;;2.58;2.15;;;7.20;99.90;;;;;;5112673;27;20043;-74